sensor_id;sensor_type;location;lat;lon;timestamp;pressure;altitude;pressure_sealevel;temperature;humidity
20027;BME280;10174;42.688;23.344;2022-08-25T00:01:34;95145.94;;;18.80;86.21
20027;BME280;10174;42.688;23.344;2022-08-25T00:04:03;95179.94;;;19.00;86.63
20027;BME280;10174;42.688;23.344;2022-08-25T00:06:29;95135.84;;;18.72;86.48
20027;BME280;10174;42.688;23.344;2022-08-25T00:08:55;95184.41;;;19.04;86.37
20027;BME280;10174;42.688;23.344;2022-08-25T00:11:26;95169.03;;;19.00;86.31
20027;BME280;10174;42.688;23.344;2022-08-25T00:13:55;95180.72;;;19.00;86.30
20027;BME280;10174;42.688;23.344;2022-08-25T00:16:22;95185.69;;;18.98;86.46
20027;BME280;10174;42.688;23.344;2022-08-25T00:18:50;95181.19;;;19.02;86.12
20027;BME280;10174;42.688;23.344;2022-08-25T00:21:16;95176.56;;;18.94;86.57
20027;BME280;10174;42.688;23.344;2022-08-25T00:23:43;95105.41;;;18.52;86.67
20027;BME280;10174;42.688;23.344;2022-08-25T00:26:09;95177.34;;;19.03;86.13
20027;BME280;10174;42.688;23.344;2022-08-25T00:28:35;95176.56;;;18.94;86.63
20027;BME280;10174;42.688;23.344;2022-08-25T00:31:02;95177.34;;;18.95;86.73
20027;BME280;10174;42.688;23.344;2022-08-25T00:33:29;95167.09;;;18.92;86.57
20027;BME280;10174;42.688;23.344;2022-08-25T00:35:58;95140.66;;;18.75;86.75
20027;BME280;10174;42.688;23.344;2022-08-25T00:38:24;95175.59;;;18.90;86.65
20027;BME280;10174;42.688;23.344;2022-08-25T00:40:51;95157.78;;;18.75;86.74
20027;BME280;10174;42.688;23.344;2022-08-25T00:46:00;95127.81;;;18.49;87.40
20027;BME280;10174;42.688;23.344;2022-08-25T00:48:27;95176.34;;;18.82;87.23
20027;BME280;10174;42.688;23.344;2022-08-25T00:50:52;95183.91;;;18.85;86.91
20027;BME280;10174;42.688;23.344;2022-08-25T00:53:17;95178.09;;;18.78;87.23
20027;BME280;10174;42.688;23.344;2022-08-25T00:55:43;95200.50;;;18.75;87.45
20027;BME280;10174;42.688;23.344;2022-08-25T00:58:12;95177.94;;;18.74;87.55
20027;BME280;10174;42.688;23.344;2022-08-25T01:00:44;95123.50;;;18.48;87.39
20027;BME280;10174;42.688;23.344;2022-08-25T01:03:11;95165.31;;;18.78;87.22
20027;BME280;10174;42.688;23.344;2022-08-25T01:05:37;95113.75;;;18.47;87.29
20027;BME280;10174;42.688;23.344;2022-08-25T01:08:04;95108.63;;;18.45;87.70
20027;BME280;10174;42.688;23.344;2022-08-25T01:10:34;95153.78;;;18.73;87.73
20027;BME280;10174;42.688;23.344;2022-08-25T01:13:25;95148.50;;;18.76;87.76
20027;BME280;10174;42.688;23.344;2022-08-25T01:15:53;95150.25;;;18.81;88.12
20027;BME280;10174;42.688;23.344;2022-08-25T01:18:21;95164.22;;;18.88;87.58
20027;BME280;10174;42.688;23.344;2022-08-25T01:20:54;95149.66;;;19.01;87.13
20027;BME280;10174;42.688;23.344;2022-08-25T01:23:21;95151.88;;;18.99;86.93
20027;BME280;10174;42.688;23.344;2022-08-25T01:26:07;95054.69;;;18.21;87.21
20027;BME280;10174;42.688;23.344;2022-08-25T01:28:33;95139.06;;;18.74;87.33
20027;BME280;10174;42.688;23.344;2022-08-25T01:30:58;95099.03;;;18.48;87.38
20027;BME280;10174;42.688;23.344;2022-08-25T01:33:24;95155.69;;;18.81;87.40
20027;BME280;10174;42.688;23.344;2022-08-25T01:35:50;95162.75;;;18.82;87.43
20027;BME280;10174;42.688;23.344;2022-08-25T01:38:15;95150.75;;;18.83;87.45
20027;BME280;10174;42.688;23.344;2022-08-25T01:40:41;95076.94;;;18.41;87.28
20027;BME280;10174;42.688;23.344;2022-08-25T01:45:38;95146.09;;;18.75;87.52
20027;BME280;10174;42.688;23.344;2022-08-25T01:48:06;95154.13;;;18.80;87.57
20027;BME280;10174;42.688;23.344;2022-08-25T01:50:32;95160.19;;;18.77;88.23
20027;BME280;10174;42.688;23.344;2022-08-25T01:53:05;95158.72;;;18.79;87.97
20027;BME280;10174;42.688;23.344;2022-08-25T01:55:32;95162.75;;;18.82;88.34
20027;BME280;10174;42.688;23.344;2022-08-25T01:58:17;95159.56;;;18.80;87.97
20027;BME280;10174;42.688;23.344;2022-08-25T02:00:50;95136.97;;;18.79;88.18
20027;BME280;10174;42.688;23.344;2022-08-25T02:03:18;95149.81;;;18.96;87.80
20027;BME280;10174;42.688;23.344;2022-08-25T02:05:44;95148.38;;;19.08;87.31
20027;BME280;10174;42.688;23.344;2022-08-25T02:08:10;95118.44;;;18.81;87.29
20027;BME280;10174;42.688;23.344;2022-08-25T02:10:36;95150.78;;;19.00;87.37
20027;BME280;10174;42.688;23.344;2022-08-25T02:13:03;95157.19;;;19.04;87.38
20027;BME280;10174;42.688;23.344;2022-08-25T02:15:29;95094.72;;;18.73;87.23
20027;BME280;10174;42.688;23.344;2022-08-25T02:17:54;95125.47;;;18.91;87.27
20027;BME280;10174;42.688;23.344;2022-08-25T02:20:20;95113.94;;;18.85;86.98
20027;BME280;10174;42.688;23.344;2022-08-25T02:22:45;95140.69;;;19.01;87.29
20027;BME280;10174;42.688;23.344;2022-08-25T02:25:11;95122.59;;;18.96;86.84
20027;BME280;10174;42.688;23.344;2022-08-25T02:27:36;95130.63;;;19.01;86.34
20027;BME280;10174;42.688;23.344;2022-08-25T02:30:04;95145.16;;;19.14;86.15
20027;BME280;10174;42.688;23.344;2022-08-25T02:32:29;95143.56;;;19.04;86.91
20027;BME280;10174;42.688;23.344;2022-08-25T02:34:55;95097.28;;;18.78;86.78
20027;BME280;10174;42.688;23.344;2022-08-25T02:37:21;95139.41;;;18.98;86.67
20027;BME280;10174;42.688;23.344;2022-08-25T02:39:46;95138.13;;;18.96;87.05
20027;BME280;10174;42.688;23.344;2022-08-25T02:42:12;95135.91;;;18.89;86.88
20027;BME280;10174;42.688;23.344;2022-08-25T02:44:38;95094.88;;;18.59;86.85
20027;BME280;10174;42.688;23.344;2022-08-25T02:47:04;95079.50;;;18.46;86.81
20027;BME280;10174;42.688;23.344;2022-08-25T02:49:29;95135.38;;;18.78;87.24
20027;BME280;10174;42.688;23.344;2022-08-25T02:51:56;95141.63;;;18.79;87.31
20027;BME280;10174;42.688;23.344;2022-08-25T02:54:22;95146.09;;;18.75;87.47
20027;BME280;10174;42.688;23.344;2022-08-25T02:56:49;95152.66;;;18.74;87.50
20027;BME280;10174;42.688;23.344;2022-08-25T02:59:14;95132.16;;;18.67;87.29
20027;BME280;10174;42.688;23.344;2022-08-25T03:01:42;95151.88;;;18.82;87.00
20027;BME280;10174;42.688;23.344;2022-08-25T03:04:07;95096.13;;;18.44;86.96
20027;BME280;10174;42.688;23.344;2022-08-25T03:06:32;95096.78;;;18.41;87.29
20027;BME280;10174;42.688;23.344;2022-08-25T03:08:58;95138.88;;;18.70;87.07
20027;BME280;10174;42.688;23.344;2022-08-25T03:11:23;95150.44;;;18.84;86.79
20027;BME280;10174;42.688;23.344;2022-08-25T03:13:50;95156.22;;;18.92;86.59
20027;BME280;10174;42.688;23.344;2022-08-25T03:16:16;95155.41;;;18.91;86.48
20027;BME280;10174;42.688;23.344;2022-08-25T03:18:42;95148.38;;;18.90;86.33
20027;BME280;10174;42.688;23.344;2022-08-25T03:21:09;95146.44;;;18.99;85.78
20027;BME280;10174;42.688;23.344;2022-08-25T03:23:35;95156.56;;;19.16;84.99
20027;BME280;10174;42.688;23.344;2022-08-25T03:26:01;95146.44;;;19.08;85.13
20027;BME280;10174;42.688;23.344;2022-08-25T03:28:45;95151.41;;;19.06;85.17
20027;BME280;10174;42.688;23.344;2022-08-25T03:31:10;95154.47;;;19.04;85.17
20027;BME280;10174;42.688;23.344;2022-08-25T03:33:36;95059.50;;;18.50;84.84
20027;BME280;10174;42.688;23.344;2022-08-25T03:36:03;95157.97;;;19.14;85.01
20027;BME280;10174;42.688;23.344;2022-08-25T03:38:29;95165.50;;;19.26;84.71
20027;BME280;10174;42.688;23.344;2022-08-25T03:40:55;95163.91;;;19.25;85.09
20027;BME280;10174;42.688;23.344;2022-08-25T03:43:21;95160.84;;;19.26;84.71
20027;BME280;10174;42.688;23.344;2022-08-25T03:45:47;95156.69;;;19.20;84.70
20027;BME280;10174;42.688;23.344;2022-08-25T03:48:13;95128.69;;;19.19;83.98
20027;BME280;10174;42.688;23.344;2022-08-25T03:50:47;95121.31;;;19.20;84.08
20027;BME280;10174;42.688;23.344;2022-08-25T03:53:13;95146.41;;;19.34;84.28
20027;BME280;10174;42.688;23.344;2022-08-25T03:55:39;95146.41;;;19.34;84.03
20027;BME280;10174;42.688;23.344;2022-08-25T03:58:05;95144.66;;;19.38;83.65
20027;BME280;10174;42.688;23.344;2022-08-25T04:00:30;95118.56;;;19.20;82.20
20027;BME280;10174;42.688;23.344;2022-08-25T04:02:56;95140.97;;;19.34;82.53
20027;BME280;10174;42.688;23.344;2022-08-25T04:05:21;95141.28;;;19.42;82.28
20027;BME280;10174;42.688;23.344;2022-08-25T04:07:47;95094.59;;;19.04;82.20
20027;BME280;10174;42.688;23.344;2022-08-25T04:10:12;95090.06;;;19.09;82.53
20027;BME280;10174;42.688;23.344;2022-08-25T04:12:38;95137.44;;;19.43;82.38
20027;BME280;10174;42.688;23.344;2022-08-25T04:15:05;95144.47;;;19.44;83.00
20027;BME280;10174;42.688;23.344;2022-08-25T04:17:32;95147.69;;;19.46;82.96
20027;BME280;10174;42.688;23.344;2022-08-25T04:19:58;95133.63;;;19.26;83.22
20027;BME280;10174;42.688;23.344;2022-08-25T04:22:23;95057.28;;;18.79;82.80
20027;BME280;10174;42.688;23.344;2022-08-25T04:24:49;95140.03;;;19.30;82.03
20027;BME280;10174;42.688;23.344;2022-08-25T04:27:14;95100.81;;;19.14;82.37
20027;BME280;10174;42.688;23.344;2022-08-25T04:29:40;95131.50;;;19.40;82.46
20027;BME280;10174;42.688;23.344;2022-08-25T04:32:05;95134.53;;;19.48;82.02
20027;BME280;10174;42.688;23.344;2022-08-25T04:34:31;95129.41;;;19.46;82.47
20027;BME280;10174;42.688;23.344;2022-08-25T04:37:02;95142.38;;;19.49;81.08
20027;BME280;10174;42.688;23.344;2022-08-25T04:39:29;95130.38;;;19.42;80.95
20027;BME280;10174;42.688;23.344;2022-08-25T04:41:55;95146.88;;;19.54;81.12
20027;BME280;10174;42.688;23.344;2022-08-25T04:44:21;95150.88;;;19.56;80.57
20027;BME280;10174;42.688;23.344;2022-08-25T04:46:46;95150.06;;;19.56;80.23
20027;BME280;10174;42.688;23.344;2022-08-25T04:49:13;95151.47;;;19.62;80.72
20027;BME280;10174;42.688;23.344;2022-08-25T04:51:39;95161.09;;;19.68;80.58
20027;BME280;10174;42.688;23.344;2022-08-25T04:54:08;95159.81;;;19.74;79.88
20027;BME280;10174;42.688;23.344;2022-08-25T04:56:35;95160.13;;;19.82;79.65
20027;BME280;10174;42.688;23.344;2022-08-25T04:59:04;95155.28;;;19.87;78.47
20027;BME280;10174;42.688;23.344;2022-08-25T05:01:31;95128.69;;;19.75;78.69
20027;BME280;10174;42.688;23.344;2022-08-25T05:03:59;95162.94;;;20.03;77.87
20027;BME280;10174;42.688;23.344;2022-08-25T05:06:26;95071.06;;;19.56;77.06
20027;BME280;10174;42.688;23.344;2022-08-25T05:08:52;95161.91;;;20.16;77.19
20027;BME280;10174;42.688;23.344;2022-08-25T05:11:18;95153.19;;;20.32;76.81
20027;BME280;10174;42.688;23.344;2022-08-25T05:13:45;95150.31;;;20.28;76.58
20027;BME280;10174;42.688;23.344;2022-08-25T05:16:11;95093.97;;;20.02;77.02
20027;BME280;10174;42.688;23.344;2022-08-25T05:18:38;95113.34;;;20.09;76.87
20027;BME280;10174;42.688;23.344;2022-08-25T05:21:09;95145.03;;;20.23;76.94
20027;BME280;10174;42.688;23.344;2022-08-25T05:23:36;95139.78;;;20.18;76.94
20027;BME280;10174;42.688;23.344;2022-08-25T05:26:10;95118.63;;;20.15;76.67
20027;BME280;10174;42.688;23.344;2022-08-25T05:28:36;95121.91;;;20.29;76.61
20027;BME280;10174;42.688;23.344;2022-08-25T05:31:03;95127.44;;;20.41;76.33
20027;BME280;10174;42.688;23.344;2022-08-25T05:33:29;95083.63;;;20.17;75.84
20027;BME280;10174;42.688;23.344;2022-08-25T05:35:55;95135.44;;;20.46;75.43
20027;BME280;10174;42.688;23.344;2022-08-25T05:38:21;95133.84;;;20.45;75.66
20027;BME280;10174;42.688;23.344;2022-08-25T05:40:47;95136.63;;;20.67;74.97
20027;BME280;10174;42.688;23.344;2022-08-25T05:43:15;95138.81;;;20.73;74.58
20027;BME280;10174;42.688;23.344;2022-08-25T05:45:41;95124.84;;;20.75;74.43
20027;BME280;10174;42.688;23.344;2022-08-25T05:48:06;95044.81;;;20.41;73.68
20027;BME280;10174;42.688;23.344;2022-08-25T05:50:32;95138.09;;;21.06;72.98
20027;BME280;10174;42.688;23.344;2022-08-25T05:52:58;95127.50;;;20.84;73.96
20027;BME280;10174;42.688;23.344;2022-08-25T05:55:23;95137.47;;;20.79;73.79
20027;BME280;10174;42.688;23.344;2022-08-25T05:57:49;95120.44;;;20.82;73.83
20027;BME280;10174;42.688;23.344;2022-08-25T06:00:15;95077.50;;;20.50;73.88
20027;BME280;10174;42.688;23.344;2022-08-25T06:02:42;95100.72;;;20.56;73.98
20027;BME280;10174;42.688;23.344;2022-08-25T06:05:18;95135.22;;;21.03;73.25
20027;BME280;10174;42.688;23.344;2022-08-25T06:07:45;95128.16;;;21.23;73.01
20027;BME280;10174;42.688;23.344;2022-08-25T06:10:11;95137.53;;;21.34;73.16
20027;BME280;10174;42.688;23.344;2022-08-25T06:12:38;95144.09;;;21.54;72.68
20027;BME280;10174;42.688;23.344;2022-08-25T06:15:05;95133.31;;;21.58;72.24
20027;BME280;10174;42.688;23.344;2022-08-25T06:17:31;95146.88;;;21.45;72.50
20027;BME280;10174;42.688;23.344;2022-08-25T06:19:57;95144.00;;;21.29;73.25
20027;BME280;10174;42.688;23.344;2022-08-25T06:22:22;95145.44;;;21.27;73.73
20027;BME280;10174;42.688;23.344;2022-08-25T06:24:49;95144.09;;;21.33;73.57
20027;BME280;10174;42.688;23.344;2022-08-25T06:27:15;95130.78;;;21.52;73.48
20027;BME280;10174;42.688;23.344;2022-08-25T06:29:40;95128.31;;;21.72;72.83
20027;BME280;10174;42.688;23.344;2022-08-25T06:32:06;95062.84;;;21.30;72.21
20027;BME280;10174;42.688;23.344;2022-08-25T06:34:32;95133.38;;;21.95;71.83
20027;BME280;10174;42.688;23.344;2022-08-25T06:36:57;95075.66;;;21.50;72.29
20027;BME280;10174;42.688;23.344;2022-08-25T06:39:23;95115.13;;;21.99;71.59
20027;BME280;10174;42.688;23.344;2022-08-25T06:41:53;95138.16;;;22.10;71.89
20027;BME280;10174;42.688;23.344;2022-08-25T06:44:20;95110.66;;;21.82;71.45
20027;BME280;10174;42.688;23.344;2022-08-25T06:46:45;95135.88;;;22.12;71.07
20027;BME280;10174;42.688;23.344;2022-08-25T06:49:11;95086.63;;;21.87;71.17
20027;BME280;10174;42.688;23.344;2022-08-25T06:51:37;95137.28;;;22.31;70.98
20027;BME280;10174;42.688;23.344;2022-08-25T06:54:06;95120.50;;;22.20;70.52
20027;BME280;10174;42.688;23.344;2022-08-25T06:56:32;95139.53;;;22.29;70.71
20027;BME280;10174;42.688;23.344;2022-08-25T06:59:03;95090.97;;;22.26;69.24
20027;BME280;10174;42.688;23.344;2022-08-25T07:01:29;95106.22;;;22.64;68.77
20027;BME280;10174;42.688;23.344;2022-08-25T07:03:58;95136.50;;;22.95;69.29
20027;BME280;10174;42.688;23.344;2022-08-25T07:06:29;95132.72;;;23.12;67.51
20027;BME280;10174;42.688;23.344;2022-08-25T07:08:55;95128.84;;;23.14;67.73
20027;BME280;10174;42.688;23.344;2022-08-25T07:11:22;95122.50;;;23.25;67.20
20027;BME280;10174;42.688;23.344;2022-08-25T07:13:48;95142.47;;;23.54;66.07
20027;BME280;10174;42.688;23.344;2022-08-25T07:16:15;95111.94;;;23.40;65.95
20027;BME280;10174;42.688;23.344;2022-08-25T07:18:41;95141.75;;;23.86;65.03
20027;BME280;10174;42.688;23.344;2022-08-25T07:21:07;95126.47;;;24.00;64.27
20027;BME280;10174;42.688;23.344;2022-08-25T07:23:33;95151.03;;;24.29;63.83
20027;BME280;10174;42.688;23.344;2022-08-25T07:26:13;95122.47;;;24.30;63.43
20027;BME280;10174;42.688;23.344;2022-08-25T07:28:40;95118.78;;;24.42;63.37
20027;BME280;10174;42.688;23.344;2022-08-25T07:31:06;95126.41;;;24.32;62.53
20027;BME280;10174;42.688;23.344;2022-08-25T07:33:32;95142.28;;;24.07;64.69
20027;BME280;10174;42.688;23.344;2022-08-25T07:35:58;95131.66;;;24.22;63.94
20027;BME280;10174;42.688;23.344;2022-08-25T07:38:23;95071.84;;;23.79;63.22
20027;BME280;10174;42.688;23.344;2022-08-25T07:40:49;95131.06;;;23.96;64.00
20027;BME280;10174;42.688;23.344;2022-08-25T07:43:20;95136.09;;;24.10;63.83
20027;BME280;10174;42.688;23.344;2022-08-25T07:45:46;95127.06;;;24.10;63.78
20027;BME280;10174;42.688;23.344;2022-08-25T07:48:12;95140.13;;;24.32;63.01
20027;BME280;10174;42.688;23.344;2022-08-25T07:50:41;95055.41;;;23.95;62.28
20027;BME280;10174;42.688;23.344;2022-08-25T07:53:07;95144.47;;;24.65;62.26
20027;BME280;10174;42.688;23.344;2022-08-25T07:55:34;95123.41;;;24.38;62.55
20027;BME280;10174;42.688;23.344;2022-08-25T07:58:02;95055.06;;;24.32;61.95
20027;BME280;10174;42.688;23.344;2022-08-25T08:00:28;95130.13;;;24.56;62.85
20027;BME280;10174;42.688;23.344;2022-08-25T08:02:57;95133.06;;;24.83;62.79
20027;BME280;10174;42.688;23.344;2022-08-25T08:05:23;95105.53;;;24.79;59.94
20027;BME280;10174;42.688;23.344;2022-08-25T08:07:49;95128.16;;;24.73;60.82
20027;BME280;10174;42.688;23.344;2022-08-25T08:10:14;95111.63;;;24.88;60.06
20027;BME280;10174;42.688;23.344;2022-08-25T08:12:40;95063.41;;;24.91;58.56
20027;BME280;10174;42.688;23.344;2022-08-25T08:15:07;95114.03;;;25.49;57.72
20027;BME280;10174;42.688;23.344;2022-08-25T08:17:33;95120.69;;;26.13;56.12
20027;BME280;10174;42.688;23.344;2022-08-25T08:19:59;95112.63;;;26.01;56.51
20027;BME280;10174;42.688;23.344;2022-08-25T08:22:25;95103.44;;;26.17;56.03
20027;BME280;10174;42.688;23.344;2022-08-25T08:24:51;95089.91;;;26.58;55.06
20027;BME280;10174;42.688;23.344;2022-08-25T08:27:16;95105.25;;;26.86;53.32
20027;BME280;10174;42.688;23.344;2022-08-25T08:29:41;95101.00;;;26.92;53.41
20027;BME280;10174;42.688;23.344;2022-08-25T08:32:10;95098.59;;;27.88;51.12
20027;BME280;10174;42.688;23.344;2022-08-25T08:34:38;95082.78;;;27.85;49.73
20027;BME280;10174;42.688;23.344;2022-08-25T08:37:05;95070.28;;;27.58;50.26
20027;BME280;10174;42.688;23.344;2022-08-25T08:39:33;95089.00;;;27.75;50.90
20027;BME280;10174;42.688;23.344;2022-08-25T08:42:12;95075.09;;;27.64;50.85
20027;BME280;10174;42.688;23.344;2022-08-25T08:53:07;95097.28;;;29.63;43.64
20027;BME280;10174;42.688;23.344;2022-08-25T08:55:44;95098.50;;;28.78;44.92
20027;BME280;10174;42.688;23.344;2022-08-25T09:00:47;95041.63;;;30.41;41.13
20027;BME280;10174;42.688;23.344;2022-08-25T09:03:46;95084.22;;;31.04;40.89
20027;BME280;10174;42.688;23.344;2022-08-25T09:06:40;95086.25;;;30.75;40.99
20027;BME280;10174;42.688;23.344;2022-08-25T09:09:08;95092.66;;;32.31;38.37
20027;BME280;10174;42.688;23.344;2022-08-25T09:22:57;95089.03;;;28.23;43.77
20027;BME280;10174;42.688;23.344;2022-08-25T09:26:15;95091.13;;;27.93;46.10
20027;BME280;10174;42.688;23.344;2022-08-25T09:28:48;95094.31;;;27.95;45.77
20027;BME280;10174;42.688;23.344;2022-08-25T09:33:40;95070.56;;;27.86;45.13
20027;BME280;10174;42.688;23.344;2022-08-25T09:36:06;95092.03;;;28.56;44.12
20027;BME280;10174;42.688;23.344;2022-08-25T09:38:32;95061.50;;;29.04;42.43
20027;BME280;10174;42.688;23.344;2022-08-25T09:40:58;95081.50;;;29.67;41.93
20027;BME280;10174;42.688;23.344;2022-08-25T09:48:47;95078.03;;;32.23;35.69
20027;BME280;10174;42.688;23.344;2022-08-25T09:51:32;95057.56;;;31.29;35.80
20027;BME280;10174;42.688;23.344;2022-08-25T09:54:16;95070.78;;;31.81;36.17
20027;BME280;10174;42.688;23.344;2022-08-25T09:57:01;95041.97;;;32.20;34.57
20027;BME280;10174;42.688;23.344;2022-08-25T09:59:32;95070.63;;;32.06;35.12
20027;BME280;10174;42.688;23.344;2022-08-25T10:02:01;95061.97;;;31.22;36.92
20027;BME280;10174;42.688;23.344;2022-08-25T10:04:30;95081.06;;;31.02;36.93
20027;BME280;10174;42.688;23.344;2022-08-25T10:06:57;95011.56;;;29.99;37.50
20027;BME280;10174;42.688;23.344;2022-08-25T10:09:37;95022.19;;;29.76;39.04
20027;BME280;10174;42.688;23.344;2022-08-25T10:12:20;95006.72;;;30.54;37.42
20027;BME280;10174;42.688;23.344;2022-08-25T10:14:48;95070.50;;;31.64;36.94
20027;BME280;10174;42.688;23.344;2022-08-25T10:17:27;95073.44;;;32.89;34.81
20027;BME280;10174;42.688;23.344;2022-08-25T10:22:40;95059.94;;;33.84;32.71
20027;BME280;10174;42.688;23.344;2022-08-25T10:25:08;95063.16;;;33.82;32.40
20027;BME280;10174;42.688;23.344;2022-08-25T10:50:03;95034.56;;;31.35;34.92
20027;BME280;10174;42.688;23.344;2022-08-25T11:01:04;95037.47;;;33.09;33.45
20027;BME280;10174;42.688;23.344;2022-08-25T11:03:46;95033.81;;;34.29;31.89
20027;BME280;10174;42.688;23.344;2022-08-25T11:06:28;95030.97;;;34.05;31.64
20027;BME280;10174;42.688;23.344;2022-08-25T11:09:03;95030.81;;;33.34;33.08
20027;BME280;10174;42.688;23.344;2022-08-25T11:11:33;95010.44;;;32.37;34.39
20027;BME280;10174;42.688;23.344;2022-08-25T11:19:38;95019.38;;;30.66;37.29
20027;BME280;10174;42.688;23.344;2022-08-25T11:27:21;94950.25;;;33.50;31.92
20027;BME280;10174;42.688;23.344;2022-08-25T11:30:09;95006.56;;;33.34;32.38
20027;BME280;10174;42.688;23.344;2022-08-25T11:32:37;95004.16;;;34.38;31.17
20027;BME280;10174;42.688;23.344;2022-08-25T11:35:06;94978.56;;;34.87;30.53
20027;BME280;10174;42.688;23.344;2022-08-25T11:37:37;94993.09;;;35.55;29.49
20027;BME280;10174;42.688;23.344;2022-08-25T11:43:38;94983.47;;;35.00;29.13
20027;BME280;10174;42.688;23.344;2022-08-25T11:46:20;94990.06;;;33.16;32.40
20027;BME280;10174;42.688;23.344;2022-08-25T11:51:42;94976.97;;;35.79;29.25
20027;BME280;10174;42.688;23.344;2022-08-25T11:54:19;94984.81;;;35.31;29.40
20027;BME280;10174;42.688;23.344;2022-08-25T11:57:03;94974.19;;;33.75;31.18
20027;BME280;10174;42.688;23.344;2022-08-25T12:02:31;94977.75;;;30.77;35.72
20027;BME280;10174;42.688;23.344;2022-08-25T12:04:57;94964.44;;;30.43;36.52
20027;BME280;10174;42.688;23.344;2022-08-25T12:07:29;94891.75;;;29.74;37.51
20027;BME280;10174;42.688;23.344;2022-08-25T12:10:18;94969.25;;;29.88;37.46
20027;BME280;10174;42.688;23.344;2022-08-25T12:17:39;94922.56;;;29.68;38.23
20027;BME280;10174;42.688;23.344;2022-08-25T12:20:05;94977.94;;;30.05;38.92
20027;BME280;10174;42.688;23.344;2022-08-25T12:25:00;94979.50;;;29.77;37.79
20027;BME280;10174;42.688;23.344;2022-08-25T12:30:19;94955.00;;;29.57;38.52
20027;BME280;10174;42.688;23.344;2022-08-25T12:38:49;94963.38;;;28.51;38.80
20027;BME280;10174;42.688;23.344;2022-08-25T12:41:19;94972.91;;;28.65;38.92
20027;BME280;10174;42.688;23.344;2022-08-25T12:43:50;94958.63;;;28.52;39.13
20027;BME280;10174;42.688;23.344;2022-08-25T12:49:32;94971.47;;;29.03;38.06
20027;BME280;10174;42.688;23.344;2022-08-25T12:52:20;94973.75;;;28.79;39.04
20027;BME280;10174;42.688;23.344;2022-08-25T12:54:58;94961.00;;;28.53;39.23
20027;BME280;10174;42.688;23.344;2022-08-25T12:57:44;94968.16;;;28.61;39.43
20027;BME280;10174;42.688;23.344;2022-08-25T13:00:53;94963.53;;;28.87;38.57
20027;BME280;10174;42.688;23.344;2022-08-25T13:06:56;94973.00;;;28.86;39.38
20027;BME280;10174;42.688;23.344;2022-08-25T13:14:43;94977.75;;;28.89;38.13
20027;BME280;10174;42.688;23.344;2022-08-25T13:17:11;94900.94;;;28.32;39.99
20027;BME280;10174;42.688;23.344;2022-08-25T13:19:48;94956.97;;;28.33;39.69
20027;BME280;10174;42.688;23.344;2022-08-25T13:22:16;94965.63;;;28.31;39.47
20027;BME280;10174;42.688;23.344;2022-08-25T13:24:44;94960.91;;;28.35;39.89
20027;BME280;10174;42.688;23.344;2022-08-25T13:27:23;94961.47;;;28.63;40.21
20027;BME280;10174;42.688;23.344;2022-08-25T13:29:56;94961.81;;;28.57;38.87
20027;BME280;10174;42.688;23.344;2022-08-25T13:32:31;94954.69;;;28.53;39.45
20027;BME280;10174;42.688;23.344;2022-08-25T13:35:28;94956.97;;;28.40;40.27
20027;BME280;10174;42.688;23.344;2022-08-25T13:38:12;94948.97;;;28.20;39.80
20027;BME280;10174;42.688;23.344;2022-08-25T13:40:37;94897.81;;;27.71;39.61
20027;BME280;10174;42.688;23.344;2022-08-25T13:43:05;94959.13;;;28.02;40.66
20027;BME280;10174;42.688;23.344;2022-08-25T13:45:34;94972.44;;;27.93;40.11
20027;BME280;10174;42.688;23.344;2022-08-25T13:48:02;94969.00;;;28.03;40.76
20027;BME280;10174;42.688;23.344;2022-08-25T13:50:34;94950.59;;;28.21;41.24
20027;BME280;10174;42.688;23.344;2022-08-25T13:53:24;94976.69;;;28.38;40.44
20027;BME280;10174;42.688;23.344;2022-08-25T13:55:53;94954.56;;;28.24;38.62
20027;BME280;10174;42.688;23.344;2022-08-25T13:58:40;94968.75;;;28.22;39.82
20027;BME280;10174;42.688;23.344;2022-08-25T14:01:17;94978.97;;;28.18;39.24
20027;BME280;10174;42.688;23.344;2022-08-25T14:03:45;94968.63;;;28.08;39.49
20027;BME280;10174;42.688;23.344;2022-08-25T14:08:46;94965.22;;;28.29;38.64
20027;BME280;10174;42.688;23.344;2022-08-25T14:11:27;94967.91;;;28.18;40.23
20027;BME280;10174;42.688;23.344;2022-08-25T14:14:12;94966.38;;;28.21;40.63
20027;BME280;10174;42.688;23.344;2022-08-25T14:16:47;94972.22;;;28.12;40.31
20027;BME280;10174;42.688;23.344;2022-08-25T14:19:16;94966.19;;;27.96;40.63
20027;BME280;10174;42.688;23.344;2022-08-25T14:21:42;94960.94;;;27.80;40.78
20027;BME280;10174;42.688;23.344;2022-08-25T14:24:08;94958.13;;;27.72;41.61
20027;BME280;10174;42.688;23.344;2022-08-25T14:26:33;94974.03;;;27.94;40.47
20027;BME280;10174;42.688;23.344;2022-08-25T14:28:59;94974.03;;;27.94;40.79
20027;BME280;10174;42.688;23.344;2022-08-25T14:31:28;94968.44;;;27.79;40.44
20027;BME280;10174;42.688;23.344;2022-08-25T14:34:19;94962.28;;;28.00;40.79
20027;BME280;10174;42.688;23.344;2022-08-25T14:36:46;94958.25;;;27.90;41.05
20027;BME280;10174;42.688;23.344;2022-08-25T14:39:12;94957.41;;;27.83;40.04
20027;BME280;10174;42.688;23.344;2022-08-25T14:41:40;94968.38;;;27.72;40.48
20027;BME280;10174;42.688;23.344;2022-08-25T14:44:06;94972.34;;;27.78;40.29
20027;BME280;10174;42.688;23.344;2022-08-25T14:46:34;94966.94;;;27.93;40.97
20027;BME280;10174;42.688;23.344;2022-08-25T14:49:04;94943.38;;;28.02;40.13
20027;BME280;10174;42.688;23.344;2022-08-25T14:51:31;94903.84;;;27.87;39.62
20027;BME280;10174;42.688;23.344;2022-08-25T14:54:03;94955.34;;;28.24;40.08
20027;BME280;10174;42.688;23.344;2022-08-25T14:56:30;94944.63;;;28.12;40.15
20027;BME280;10174;42.688;23.344;2022-08-25T14:58:56;94952.63;;;27.76;40.03
20027;BME280;10174;42.688;23.344;2022-08-25T15:01:23;94958.97;;;27.80;41.24